Darstellungsparameter: Aktuell verwendete Einstellungen:
Skalierung der Graphiken ... ?
xyx+y,   Skalierungsfaktor:      Skalierung: Modus: x, Faktor: 1
Darstellungszeitraum ... ?
Vom - - bis: - -   Zeitraum: 07.04.2017 - 08.04.2017
Min/Max/Avg-Anzeige ... ?
Zeige MMA aktuell
Zeige MMA Monat
Zeige MMA alles
Zeige --A aktuell
Zeige --A Monat
Zeige --A alles
Keine MMA-Anzeige
MMA:
Average (ber die Originaldaten)
MMA-Basis: 07.04.2017 - 08.04.2017
Quicknavigation für Darstellung... ?
Tage:      1T, 2T, 3T, 5T -1T -2T -3T -5T +1T +2T +3T +5T
Wochen: 1W, 2W, 3W -1W -2W -3W +1W +2W +3W
Monate: 1M, 3M, 6M -1M -3M -6M +1M +3M +6M
Jahre:    1J, 3J, 5J, 10J -1J -3J -5J -10J +1J +3J +5J +10J
Nutze für die Darstellung ... ?
Originaldaten oder Mittelwerte auf ...
Stundenbasis Tagesbasis Wochenbasis
Monatsbasis Jahresbasis      Datenbasis: Original-Daten
Darstellen als:
Statistik (Auto) Statistik J:M      Darstellung:
Zur Graphik,    zurück zur Übersicht aller Sensoren.
 
Tabellarische Datenbersicht: ?
 
Sensor: Nr:Datum:Temp:Abs-Feuchte:Windchill:Wind:
Aussen-T/F 1 07-04-2017 00:00:00 7.9 C 6.57 g/m*3 7.9 C 3.2 km/h
2 07-04-2017 00:05:00 7.9 C 6.65 g/m*3 7.9 C 1.6 km/h
3 07-04-2017 00:10:00 7.9 C 6.65 g/m*3 7.9 C 0 km/h
4 07-04-2017 00:15:00 7.8 C 6.61 g/m*3 7.8 C 1.6 km/h
5 07-04-2017 00:20:00 7.8 C 6.61 g/m*3 7.8 C 0 km/h
6 07-04-2017 00:25:00 7.8 C 6.61 g/m*3 7.8 C 0 km/h
7 07-04-2017 00:30:00 7.8 C 6.61 g/m*3 7.8 C 1.6 km/h
8 07-04-2017 00:35:00 7.6 C 6.53 g/m*3 7.6 C 0 km/h
9 07-04-2017 00:40:00 7.5 C 6.56 g/m*3 7.5 C 0 km/h
10 07-04-2017 00:45:00 7.4 C 6.6 g/m*3 7.4 C 0 km/h
11 07-04-2017 00:50:00 7.3 C 6.56 g/m*3 7.3 C 0 km/h
12 07-04-2017 00:55:00 7.4 C 6.6 g/m*3 7.4 C 0 km/h
13 07-04-2017 01:00:00 7.4 C 6.6 g/m*3 7.4 C 0 km/h
14 07-04-2017 01:05:00 7.4 C 6.68 g/m*3 7.4 C 0 km/h
15 07-04-2017 01:10:00 7.4 C 6.6 g/m*3 7.4 C 0 km/h
16 07-04-2017 01:15:00 7.5 C 6.72 g/m*3 7.5 C 0 km/h
17 07-04-2017 01:20:00 7.5 C 6.72 g/m*3 7.5 C 0 km/h
18 07-04-2017 01:25:00 7.6 C 6.69 g/m*3 7.6 C 0 km/h
19 07-04-2017 01:30:00 7.6 C 6.69 g/m*3 7.6 C 1.6 km/h
20 07-04-2017 01:35:00 7.6 C 6.69 g/m*3 7.6 C 1.6 km/h
21 07-04-2017 06:10:00 3.6 C 5.63 g/m*3 3.6 C 3.2 km/h
22 07-04-2017 06:15:00 3.6 C 5.63 g/m*3 3.6 C 0 km/h
23 07-04-2017 06:20:00 3.6 C 5.63 g/m*3 3.6 C 1.6 km/h
24 07-04-2017 06:25:00 3.5 C 5.66 g/m*3 3.5 C 1.6 km/h
25 07-04-2017 06:30:00 3.5 C 5.66 g/m*3 3.5 C 1.6 km/h
Sensor: Nr:Datum:Temp:Abs-Feuchte:Windchill:Wind:
Aussen-T/F 26 07-04-2017 06:35:00 3.5 C 5.66 g/m*3 3.5 C 3.2 km/h
27 07-04-2017 06:40:00 3.5 C 5.66 g/m*3 3.5 C 0 km/h
28 07-04-2017 06:45:00 3.4 C 5.62 g/m*3 3.4 C 1.6 km/h
29 07-04-2017 06:50:00 3.4 C 5.62 g/m*3 3.4 C 1.6 km/h
30 07-04-2017 06:55:00 3.4 C 5.62 g/m*3 3.4 C 0 km/h
31 07-04-2017 07:00:00 3.4 C 5.62 g/m*3 3.4 C 0 km/h
32 07-04-2017 07:05:00 3.4 C 5.62 g/m*3 1.23 C 8.1 km/h
33 07-04-2017 07:10:00 3.4 C 5.62 g/m*3 3.4 C 1.6 km/h
34 07-04-2017 07:15:00 3.4 C 5.62 g/m*3 3.4 C 1.6 km/h
35 07-04-2017 07:20:00 3.4 C 5.62 g/m*3 3.4 C 0 km/h
36 07-04-2017 07:25:00 3.4 C 5.68 g/m*3 3.4 C 1.6 km/h
37 07-04-2017 07:30:00 3.4 C 5.68 g/m*3 3.4 C 3.2 km/h
38 07-04-2017 07:35:00 3.5 C 5.72 g/m*3 3.5 C 1.6 km/h
39 07-04-2017 07:40:00 3.5 C 5.72 g/m*3 3.5 C 3.2 km/h
40 07-04-2017 07:45:00 3.5 C 5.72 g/m*3 3.5 C 3.2 km/h
41 07-04-2017 07:50:00 3.5 C 5.72 g/m*3 3.5 C 3.2 km/h
42 07-04-2017 11:40:00 10.6 C 7.22 g/m*3 10.6 C 3.2 km/h
43 07-04-2017 11:45:00 10.6 C 7.12 g/m*3 10.06 C 6.4 km/h
44 07-04-2017 11:50:00 10.7 C 7.17 g/m*3 9.81 C 8.1 km/h
45 07-04-2017 11:55:00 10.7 C 7.17 g/m*3 10.7 C 4.8 km/h
46 07-04-2017 12:00:00 10.7 C 7.17 g/m*3 10.7 C 4.8 km/h
47 07-04-2017 12:05:00 10.8 C 7.12 g/m*3 10.8 C 4.8 km/h
48 07-04-2017 12:10:00 11 C 7.11 g/m*3 10.16 C 8.1 km/h
49 07-04-2017 12:15:00 11.1 C 7.05 g/m*3 11.1 C 8.1 km/h
50 07-04-2017 12:20:00 11.3 C 7.14 g/m*3 11.3 C 3.2 km/h
Sensor: Nr:Datum:Temp:Abs-Feuchte:Windchill:Wind:
Aussen-T/F 51 07-04-2017 12:25:00 11.4 C 7.08 g/m*3 11.4 C 9.7 km/h
52 07-04-2017 12:30:00 11.5 C 7.13 g/m*3 11.5 C 9.7 km/h
53 07-04-2017 12:35:00 11.6 C 7.28 g/m*3 11.6 C 11.3 km/h
54 07-04-2017 12:40:00 11.7 C 7.11 g/m*3 11.7 C 11.3 km/h
55 07-04-2017 12:45:00 11.8 C 7.16 g/m*3 11.8 C 8.1 km/h
56 07-04-2017 12:50:00 11.9 C 7.2 g/m*3 11.9 C 4.8 km/h
57 07-04-2017 12:55:00 12.1 C 7.29 g/m*3 12.1 C 8.1 km/h
58 07-04-2017 13:00:00 12.1 C 7.18 g/m*3 12.1 C 14.5 km/h
59 07-04-2017 13:05:00 12.2 C 7.23 g/m*3 12.2 C 14.5 km/h
60 07-04-2017 13:10:00 12.3 C 7.28 g/m*3 12.3 C 9.7 km/h
61 07-04-2017 13:15:00 12.4 C 7.32 g/m*3 12.4 C 11.3 km/h
62 07-04-2017 13:20:00 12.6 C 7.3 g/m*3 12.6 C 17.7 km/h
63 07-04-2017 13:25:00 12.6 C 7.3 g/m*3 12.6 C 12.9 km/h
64 07-04-2017 13:30:00 12.6 C 7.3 g/m*3 12.6 C 14.5 km/h
65 07-04-2017 13:35:00 12.6 C 7.3 g/m*3 12.6 C 8.1 km/h
66 07-04-2017 13:40:00 12.5 C 7.26 g/m*3 12.5 C 11.3 km/h
67 07-04-2017 13:45:00 12.6 C 7.41 g/m*3 12.6 C 9.7 km/h
68 07-04-2017 13:50:00 12.7 C 7.46 g/m*3 12.7 C 17.7 km/h
69 07-04-2017 13:55:00 12.9 C 7.55 g/m*3 12.9 C 4.8 km/h
70 07-04-2017 14:00:00 13.3 C 7.63 g/m*3 13.3 C 11.3 km/h
71 07-04-2017 14:05:00 13.4 C 7.56 g/m*3 13.4 C 11.3 km/h
72 07-04-2017 14:10:00 13.5 C 7.49 g/m*3 13.5 C 12.9 km/h
73 07-04-2017 14:15:00 13.5 C 7.49 g/m*3 13.5 C 11.3 km/h
74 07-04-2017 14:20:00 13.6 C 7.65 g/m*3 13.6 C 11.3 km/h
75 07-04-2017 14:25:00 13.6 C 7.65 g/m*3 13.6 C 9.7 km/h
Sensor: Nr:Datum:Temp:Abs-Feuchte:Windchill:Wind:
Aussen-T/F 76 07-04-2017 14:30:00 13.6 C 7.41 g/m*3 13.6 C 17.7 km/h
77 07-04-2017 14:35:00 13.4 C 7.32 g/m*3 13.4 C 14.5 km/h
78 07-04-2017 14:40:00 13.4 C 7.44 g/m*3 13.4 C 12.9 km/h
79 07-04-2017 14:45:00 13.6 C 7.53 g/m*3 13.6 C 14.5 km/h
80 07-04-2017 14:50:00 13.6 C 7.53 g/m*3 13.6 C 11.3 km/h
81 07-04-2017 14:55:00 13.6 C 7.3 g/m*3 13.6 C 12.9 km/h
82 07-04-2017 15:00:00 13.6 C 7.41 g/m*3 13.6 C 12.9 km/h
83 07-04-2017 15:05:00 13.6 C 7.41 g/m*3 13.6 C 17.7 km/h
84 07-04-2017 15:10:00 13.8 C 7.39 g/m*3 13.8 C 17.7 km/h
85 07-04-2017 15:15:00 13.8 C 7.27 g/m*3 13.8 C 14.5 km/h
86 07-04-2017 15:20:00 13.7 C 7.34 g/m*3 13.7 C 14.5 km/h
87 07-04-2017 15:25:00 13.7 C 7.34 g/m*3 13.7 C 9.7 km/h
88 07-04-2017 15:30:00 13.8 C 7.51 g/m*3 13.8 C 11.3 km/h
89 07-04-2017 15:35:00 14.2 C 7.57 g/m*3 14.2 C 16.1 km/h
90 07-04-2017 15:40:00 14.2 C 7.57 g/m*3 14.2 C 16.1 km/h
91 07-04-2017 15:45:00 14.3 C 7.74 g/m*3 14.3 C 12.9 km/h
92 07-04-2017 15:50:00 14.5 C 7.59 g/m*3 14.5 C 8.1 km/h
93 07-04-2017 15:55:00 14.4 C 7.42 g/m*3 14.4 C 16.1 km/h
94 07-04-2017 16:00:00 14.5 C 7.71 g/m*3 14.5 C 14.5 km/h
95 07-04-2017 16:05:00 14.6 C 7.51 g/m*3 14.6 C 16.1 km/h
96 07-04-2017 16:10:00 14.3 C 7.49 g/m*3 14.3 C 17.7 km/h
97 07-04-2017 16:15:00 14.2 C 7.57 g/m*3 14.2 C 11.3 km/h
98 07-04-2017 16:20:00 14.1 C 7.28 g/m*3 14.1 C 12.9 km/h
99 07-04-2017 16:25:00 14.2 C 7.45 g/m*3 14.2 C 14.5 km/h
100 07-04-2017 16:30:00 14.6 C 7.63 g/m*3 14.6 C 11.3 km/h
Sensor: Nr:Datum:Temp:Abs-Feuchte:Windchill:Wind:
Aussen-T/F 101 07-04-2017 16:35:00 15.1 C 7.87 g/m*3 15.1 C 14.5 km/h
102 07-04-2017 16:40:00 15.4 C 7.49 g/m*3 15.4 C 14.5 km/h
103 07-04-2017 16:45:00 15 C 7.44 g/m*3 15 C 17.7 km/h
104 07-04-2017 16:50:00 14.7 C 7.43 g/m*3 14.7 C 11.3 km/h
105 07-04-2017 16:55:00 14.5 C 7.46 g/m*3 14.5 C 12.9 km/h
106 07-04-2017 17:00:00 14.4 C 7.54 g/m*3 14.4 C 11.3 km/h
107 07-04-2017 17:05:00 14.7 C 7.55 g/m*3 14.7 C 8.1 km/h
108 07-04-2017 17:10:00 14.9 C 7.52 g/m*3 14.9 C 12.9 km/h
109 07-04-2017 17:15:00 15.2 C 7.66 g/m*3 15.2 C 8.1 km/h
110 07-04-2017 17:20:00 15.5 C 7.67 g/m*3 15.5 C 14.5 km/h
111 07-04-2017 17:25:00 15.4 C 7.62 g/m*3 15.4 C 12.9 km/h
112 07-04-2017 17:30:00 15.2 C 7.4 g/m*3 15.2 C 11.3 km/h
113 07-04-2017 17:35:00 15.1 C 7.48 g/m*3 15.1 C 11.3 km/h
114 07-04-2017 17:40:00 15.1 C 7.35 g/m*3 15.1 C 17.7 km/h
115 07-04-2017 17:45:00 15.2 C 7.53 g/m*3 15.2 C 9.7 km/h
116 07-04-2017 17:50:00 15.3 C 7.57 g/m*3 15.3 C 9.7 km/h
117 07-04-2017 17:55:00 15.2 C 7.4 g/m*3 15.2 C 14.5 km/h
118 07-04-2017 18:00:00 15.1 C 7.48 g/m*3 15.1 C 14.5 km/h
119 07-04-2017 18:05:00 15.2 C 7.66 g/m*3 15.2 C 9.7 km/h
120 07-04-2017 18:10:00 15.3 C 7.44 g/m*3 15.3 C 19.3 km/h
121 07-04-2017 18:15:00 15.1 C 7.61 g/m*3 15.1 C 19.3 km/h
122 07-04-2017 18:20:00 15.1 C 7.61 g/m*3 15.1 C 11.3 km/h
123 07-04-2017 18:25:00 15.3 C 7.7 g/m*3 15.3 C 6.4 km/h
124 07-04-2017 18:30:00 15.4 C 7.62 g/m*3 15.4 C 11.3 km/h
125 07-04-2017 18:35:00 15.3 C 7.44 g/m*3 15.3 C 9.7 km/h
Sensor: Nr:Datum:Temp:Abs-Feuchte:Windchill:Wind:
Aussen-T/F 126 07-04-2017 18:40:00 15.2 C 7.53 g/m*3 15.2 C 16.1 km/h
127 07-04-2017 18:45:00 14.8 C 7.47 g/m*3 14.8 C 14.5 km/h
128 07-04-2017 18:50:00 14.4 C 7.42 g/m*3 14.4 C 12.9 km/h
129 07-04-2017 18:55:00 14.3 C 7.49 g/m*3 14.3 C 9.7 km/h
130 07-04-2017 19:00:00 14.2 C 7.45 g/m*3 14.2 C 8.1 km/h
131 07-04-2017 19:05:00 14.3 C 7.62 g/m*3 14.3 C 11.3 km/h
132 07-04-2017 19:10:00 14.1 C 7.4 g/m*3 14.1 C 12.9 km/h
133 07-04-2017 19:15:00 13.7 C 7.34 g/m*3 13.7 C 11.3 km/h
134 07-04-2017 19:20:00 13.5 C 7.37 g/m*3 13.5 C 8.1 km/h
135 07-04-2017 19:25:00 13.4 C 7.44 g/m*3 13.4 C 6.4 km/h
136 07-04-2017 19:30:00 13.3 C 7.39 g/m*3 13.3 C 6.4 km/h
137 07-04-2017 19:35:00 13.2 C 7.46 g/m*3 13.2 C 4.8 km/h
138 07-04-2017 19:40:00 13.2 C 7.46 g/m*3 13.2 C 8.1 km/h
139 07-04-2017 19:45:00 13.1 C 7.42 g/m*3 13.1 C 4.8 km/h
140 07-04-2017 19:50:00 13 C 7.48 g/m*3 13 C 8.1 km/h
141 07-04-2017 19:55:00 12.9 C 7.33 g/m*3 12.9 C 6.4 km/h
142 07-04-2017 20:00:00 12.9 C 7.44 g/m*3 12.9 C 3.2 km/h
143 07-04-2017 20:05:00 12.8 C 7.62 g/m*3 12.8 C 0 km/h
144 07-04-2017 20:10:00 12.7 C 7.46 g/m*3 12.7 C 0 km/h
145 07-04-2017 20:15:00 12.6 C 7.41 g/m*3 12.6 C 3.2 km/h
146 07-04-2017 20:20:00 12.4 C 7.43 g/m*3 12.4 C 0 km/h
147 07-04-2017 20:25:00 12.4 C 7.54 g/m*3 12.4 C 0 km/h
148 07-04-2017 20:30:00 12.2 C 7.45 g/m*3 12.2 C 0 km/h
149 07-04-2017 20:35:00 12.1 C 7.51 g/m*3 12.1 C 0 km/h
150 07-04-2017 20:40:00 12 C 7.57 g/m*3 12 C 0 km/h
Sensor: Nr:Datum:Temp:Abs-Feuchte:Windchill:Wind:
Aussen-T/F 151 07-04-2017 20:45:00 11.8 C 7.47 g/m*3 11.8 C 0 km/h
152 07-04-2017 20:50:00 11.7 C 7.53 g/m*3 11.7 C 0 km/h
153 07-04-2017 20:55:00 11.7 C 7.53 g/m*3 11.7 C 1.6 km/h
154 07-04-2017 21:00:00 11.6 C 7.48 g/m*3 11.6 C 0 km/h
155 07-04-2017 21:05:00 11.6 C 7.48 g/m*3 11.6 C 0 km/h
156 07-04-2017 21:10:00 11.6 C 7.59 g/m*3 11.6 C 0 km/h
157 07-04-2017 21:15:00 11.6 C 7.59 g/m*3 11.6 C 0 km/h
158 07-04-2017 21:20:00 11.5 C 7.64 g/m*3 11.5 C 0 km/h
159 07-04-2017 21:25:00 11.4 C 7.49 g/m*3 11.4 C 0 km/h
160 07-04-2017 21:30:00 11.4 C 7.49 g/m*3 11.4 C 0 km/h
161 07-04-2017 21:35:00 11.4 C 7.49 g/m*3 11.4 C 0 km/h
162 07-04-2017 21:40:00 11.3 C 7.55 g/m*3 11.3 C 0 km/h
163 07-04-2017 21:45:00 11.3 C 7.55 g/m*3 11.3 C 0 km/h
164 07-04-2017 21:50:00 11.2 C 7.6 g/m*3 11.2 C 0 km/h
165 07-04-2017 21:55:00 11.1 C 7.55 g/m*3 11.1 C 0 km/h
166 07-04-2017 22:00:00 11.1 C 7.55 g/m*3 11.1 C 0 km/h
167 08-04-2017 09:15:00 8.9 C 7.45 g/m*3 8.1 C 6.4 km/h
168 08-04-2017 09:20:00 9.1 C 7.54 g/m*3 9.1 C 4.8 km/h
169 08-04-2017 09:25:00 9.2 C 7.59 g/m*3 8.45 C 6.4 km/h
170 08-04-2017 09:30:00 9.4 C 7.6 g/m*3 8.68 C 6.4 km/h
171 08-04-2017 09:35:00 9.5 C 7.65 g/m*3 8.4 C 8.1 km/h
172 08-04-2017 09:40:00 9.6 C 7.69 g/m*3 8.91 C 6.4 km/h
173 08-04-2017 09:45:00 9.8 C 7.7 g/m*3 9.8 C 3.2 km/h
174 08-04-2017 09:50:00 9.9 C 7.75 g/m*3 9.9 C 3.2 km/h
175 08-04-2017 09:55:00 10.1 C 7.75 g/m*3 10.1 C 3.2 km/h
Sensor: Nr:Datum:Temp:Abs-Feuchte:Windchill:Wind:
Aussen-T/F 176 08-04-2017 10:00:00 10.3 C 7.76 g/m*3 10.3 C 4.8 km/h
177 08-04-2017 10:05:00 10.5 C 7.95 g/m*3 10.5 C 3.2 km/h
178 08-04-2017 10:10:00 10.7 C 7.96 g/m*3 10.7 C 1.6 km/h
179 08-04-2017 10:15:00 10.9 C 7.86 g/m*3 10.9 C 4.8 km/h
180 08-04-2017 10:20:00 11.2 C 8.01 g/m*3 11.2 C 4.8 km/h
181 08-04-2017 10:25:00 11.3 C 7.96 g/m*3 11.3 C 6.4 km/h
182 08-04-2017 10:30:00 11.4 C 7.8 g/m*3 11.4 C 3.2 km/h
183 08-04-2017 10:35:00 11.6 C 7.9 g/m*3 11.6 C 3.2 km/h
184 08-04-2017 10:40:00 11.8 C 7.89 g/m*3 11.8 C 3.2 km/h
185 08-04-2017 10:45:00 11.9 C 7.94 g/m*3 11.9 C 1.6 km/h
186 08-04-2017 10:50:00 12.2 C 8.09 g/m*3 12.2 C 1.6 km/h
187 08-04-2017 10:55:00 12.3 C 7.93 g/m*3 12.3 C 1.6 km/h
188 08-04-2017 11:00:00 12.5 C 7.92 g/m*3 12.5 C 0 km/h
189 08-04-2017 11:05:00 12.7 C 8.13 g/m*3 12.7 C 4.8 km/h
190 08-04-2017 11:10:00 12.8 C 7.95 g/m*3 12.8 C 3.2 km/h
191 08-04-2017 11:15:00 12.9 C 8 g/m*3 12.9 C 3.2 km/h
192 08-04-2017 11:20:00 13 C 8.05 g/m*3 13 C 4.8 km/h
193 08-04-2017 11:25:00 13.1 C 7.99 g/m*3 13.1 C 3.2 km/h
194 08-04-2017 11:30:00 13.1 C 7.87 g/m*3 13.1 C 6.4 km/h
195 08-04-2017 11:35:00 13.1 C 7.87 g/m*3 13.1 C 0 km/h
196 08-04-2017 11:40:00 13.1 C 7.99 g/m*3 13.1 C 0 km/h
197 08-04-2017 11:45:00 13.2 C 8.04 g/m*3 13.2 C 1.6 km/h
198 08-04-2017 11:50:00 13.2 C 7.92 g/m*3 13.2 C 4.8 km/h
199 08-04-2017 11:55:00 13.4 C 8.02 g/m*3 13.4 C 6.4 km/h
200 08-04-2017 12:00:00 13.5 C 7.95 g/m*3 13.5 C 3.2 km/h
Sensor: Nr:Datum:Temp:Abs-Feuchte:Windchill:Wind:
Aussen-T/F 201 08-04-2017 12:05:00 13.7 C 8.29 g/m*3 13.7 C 0 km/h
202 08-04-2017 12:10:00 13.8 C 7.98 g/m*3 13.8 C 4.8 km/h
203 08-04-2017 12:15:00 14.1 C 8.25 g/m*3 14.1 C 4.8 km/h
204 08-04-2017 12:20:00 14.2 C 8.06 g/m*3 14.2 C 3.2 km/h
205 08-04-2017 12:25:00 14.3 C 7.99 g/m*3 14.3 C 3.2 km/h
206 08-04-2017 12:30:00 14.4 C 8.03 g/m*3 14.4 C 4.8 km/h
207 08-04-2017 12:35:00 14.5 C 8.08 g/m*3 14.5 C 4.8 km/h
208 08-04-2017 12:40:00 14.6 C 8.13 g/m*3 14.6 C 4.8 km/h
209 08-04-2017 12:45:00 14.6 C 8.13 g/m*3 14.6 C 4.8 km/h
210 08-04-2017 12:50:00 14.7 C 7.81 g/m*3 14.7 C 8.1 km/h
211 08-04-2017 12:55:00 14.7 C 8.06 g/m*3 14.7 C 8.1 km/h
212 08-04-2017 13:00:00 14.7 C 7.81 g/m*3 14.7 C 6.4 km/h
213 08-04-2017 13:05:00 14.7 C 7.93 g/m*3 14.7 C 4.8 km/h
214 08-04-2017 13:10:00 14.8 C 8.11 g/m*3 14.8 C 3.2 km/h
215 08-04-2017 13:15:00 14.9 C 7.9 g/m*3 14.9 C 8.1 km/h
216 08-04-2017 13:20:00 14.9 C 7.77 g/m*3 14.9 C 3.2 km/h
217 08-04-2017 13:25:00 14.9 C 7.9 g/m*3 14.9 C 3.2 km/h
218 08-04-2017 13:30:00 14.9 C 7.77 g/m*3 14.9 C 3.2 km/h
219 08-04-2017 13:35:00 15 C 7.69 g/m*3 15 C 4.8 km/h
220 08-04-2017 13:40:00 15.1 C 7.87 g/m*3 15.1 C 1.6 km/h
221 08-04-2017 13:45:00 15.1 C 7.61 g/m*3 15.1 C 4.8 km/h
222 08-04-2017 13:50:00 15.3 C 7.84 g/m*3 15.3 C 4.8 km/h
223 08-04-2017 13:55:00 15.4 C 7.88 g/m*3 15.4 C 8.1 km/h
224 08-04-2017 14:00:00 15.6 C 7.98 g/m*3 15.6 C 8.1 km/h
225 08-04-2017 14:05:00 15.7 C 8.03 g/m*3 15.7 C 8.1 km/h
Sensor: Nr:Datum:Temp:Abs-Feuchte:Windchill:Wind:
Aussen-T/F 226 08-04-2017 14:10:00 15.8 C 7.81 g/m*3 15.8 C 6.4 km/h
227 08-04-2017 14:15:00 16.1 C 7.95 g/m*3 16.1 C 8.1 km/h
228 08-04-2017 14:20:00 16.1 C 7.68 g/m*3 16.1 C 3.2 km/h
229 08-04-2017 14:25:00 16.3 C 8.05 g/m*3 16.3 C 6.4 km/h
230 08-04-2017 14:30:00 16.4 C 7.96 g/m*3 16.4 C 6.4 km/h
231 08-04-2017 14:35:00 16.6 C 8.05 g/m*3 16.6 C 11.3 km/h
232 08-04-2017 14:40:00 16.6 C 8.05 g/m*3 16.6 C 3.2 km/h
233 08-04-2017 14:45:00 16.7 C 8.1 g/m*3 16.7 C 8.1 km/h
234 08-04-2017 14:50:00 16.7 C 7.96 g/m*3 16.7 C 4.8 km/h
235 08-04-2017 14:55:00 16.7 C 7.96 g/m*3 16.7 C 9.7 km/h
236 08-04-2017 15:00:00 16.6 C 7.91 g/m*3 16.6 C 9.7 km/h
237 08-04-2017 15:05:00 16.6 C 8.05 g/m*3 16.6 C 8.1 km/h
238 08-04-2017 15:10:00 16.7 C 7.96 g/m*3 16.7 C 6.4 km/h
239 08-04-2017 15:15:00 16.8 C 7.86 g/m*3 16.8 C 8.1 km/h
240 08-04-2017 15:20:00 16.9 C 8.05 g/m*3 16.9 C 8.1 km/h
241 08-04-2017 15:25:00 17 C 7.96 g/m*3 17 C 6.4 km/h
242 08-04-2017 15:30:00 17.1 C 8.15 g/m*3 17.1 C 6.4 km/h
243 08-04-2017 15:35:00 17.2 C 8.05 g/m*3 17.2 C 9.7 km/h
244 08-04-2017 15:40:00 17.3 C 7.96 g/m*3 17.3 C 9.7 km/h
245 08-04-2017 15:45:00 17.4 C 8.15 g/m*3 17.4 C 6.4 km/h
246 08-04-2017 15:50:00 17.6 C 8.25 g/m*3 17.6 C 9.7 km/h
247 08-04-2017 15:55:00 17.7 C 8.15 g/m*3 17.7 C 9.7 km/h
248 08-04-2017 16:00:00 17.8 C 8.04 g/m*3 17.8 C 8.1 km/h
249 08-04-2017 16:05:00 17.9 C 8.24 g/m*3 17.9 C 4.8 km/h
250 08-04-2017 16:10:00 17.9 C 8.09 g/m*3 17.9 C 3.2 km/h
Sensor: Nr:Datum:Temp:Abs-Feuchte:Windchill:Wind:
Aussen-T/F 251 08-04-2017 16:15:00 18 C 7.99 g/m*3 18 C 3.2 km/h
252 08-04-2017 16:20:00 18.1 C 8.03 g/m*3 18.1 C 8.1 km/h
253 08-04-2017 16:25:00 18.2 C 8.08 g/m*3 18.2 C 4.8 km/h
254 08-04-2017 16:30:00 18.6 C 8.28 g/m*3 18.6 C 4.8 km/h
255 08-04-2017 16:35:00 18.7 C 8.01 g/m*3 18.7 C 8.1 km/h
256 08-04-2017 16:40:00 18.8 C 8.05 g/m*3 18.8 C 6.4 km/h
257 08-04-2017 16:45:00 19.1 C 7.87 g/m*3 19.1 C 9.7 km/h
258 08-04-2017 16:50:00 19.2 C 7.75 g/m*3 19.2 C 4.8 km/h
259 08-04-2017 16:55:00 19.2 C 8.08 g/m*3 19.2 C 6.4 km/h
260 08-04-2017 17:00:00 19.4 C 7.67 g/m*3 19.4 C 8.1 km/h
261 08-04-2017 17:05:00 19.2 C 7.75 g/m*3 19.2 C 8.1 km/h
262 08-04-2017 17:10:00 19.3 C 7.8 g/m*3 19.3 C 3.2 km/h
263 08-04-2017 17:15:00 19.5 C 7.89 g/m*3 19.5 C 4.8 km/h
264 08-04-2017 17:20:00 19.4 C 7.67 g/m*3 19.4 C 8.1 km/h
265 08-04-2017 17:25:00 19.4 C 7.51 g/m*3 19.4 C 8.1 km/h
266 08-04-2017 17:30:00 19.3 C 7.63 g/m*3 19.3 C 11.3 km/h
267 08-04-2017 17:35:00 19.1 C 7.7 g/m*3 19.1 C 9.7 km/h
268 08-04-2017 17:40:00 19 C 7.66 g/m*3 19 C 8.1 km/h
269 08-04-2017 17:45:00 19.1 C 7.87 g/m*3 19.1 C 6.4 km/h
270 08-04-2017 17:50:00 19.3 C 7.96 g/m*3 19.3 C 8.1 km/h
271 08-04-2017 17:55:00 19.4 C 7.67 g/m*3 19.4 C 6.4 km/h
272 08-04-2017 18:00:00 19.6 C 7.77 g/m*3 19.6 C 8.1 km/h
273 08-04-2017 18:05:00 19.5 C 7.72 g/m*3 19.5 C 8.1 km/h
274 08-04-2017 18:10:00 19.4 C 7.67 g/m*3 19.4 C 8.1 km/h
275 08-04-2017 18:15:00 19.3 C 7.8 g/m*3 19.3 C 9.7 km/h
Sensor: Nr:Datum:Temp:Abs-Feuchte:Windchill:Wind:
Aussen-T/F 276 08-04-2017 18:20:00 19.3 C 7.8 g/m*3 19.3 C 9.7 km/h
277 08-04-2017 18:25:00 19.2 C 7.59 g/m*3 19.2 C 8.1 km/h
278 08-04-2017 18:30:00 19.1 C 7.87 g/m*3 19.1 C 6.4 km/h
279 08-04-2017 18:35:00 19.2 C 7.91 g/m*3 19.2 C 6.4 km/h
280 08-04-2017 18:40:00 19.3 C 7.96 g/m*3 19.3 C 4.8 km/h
281 08-04-2017 18:45:00 19.3 C 7.8 g/m*3 19.3 C 6.4 km/h
282 08-04-2017 18:50:00 19.3 C 7.8 g/m*3 19.3 C 3.2 km/h
283 08-04-2017 18:55:00 19.3 C 7.8 g/m*3 19.3 C 4.8 km/h
284 08-04-2017 19:00:00 19.2 C 7.59 g/m*3 19.2 C 4.8 km/h
285 08-04-2017 19:05:00 19.1 C 7.54 g/m*3 19.1 C 4.8 km/h
286 08-04-2017 19:10:00 19 C 7.5 g/m*3 19 C 4.8 km/h
287 08-04-2017 19:15:00 18.9 C 7.45 g/m*3 18.9 C 1.6 km/h
288 08-04-2017 19:20:00 18.8 C 7.41 g/m*3 18.8 C 6.4 km/h
289 08-04-2017 19:25:00 18.6 C 7.48 g/m*3 18.6 C 4.8 km/h
290 08-04-2017 19:30:00 18.4 C 8.18 g/m*3 18.4 C 4.8 km/h
291 08-04-2017 19:35:00 18.1 C 8.03 g/m*3 18.1 C 1.6 km/h
292 08-04-2017 19:40:00 17.6 C 8.25 g/m*3 17.6 C 3.2 km/h
293 08-04-2017 19:45:00 17 C 8.25 g/m*3 17 C 3.2 km/h
294 08-04-2017 19:50:00 16.4 C 8.1 g/m*3 16.4 C 3.2 km/h
295 08-04-2017 19:55:00 15.9 C 7.99 g/m*3 15.9 C 4.8 km/h
296 08-04-2017 20:00:00 15.4 C 8.01 g/m*3 15.4 C 4.8 km/h
297 08-04-2017 20:05:00 14.9 C 7.9 g/m*3 14.9 C 4.8 km/h
298 08-04-2017 20:10:00 14.6 C 7.88 g/m*3 14.6 C 4.8 km/h
299 08-04-2017 20:15:00 14.2 C 7.82 g/m*3 14.2 C 4.8 km/h
300 08-04-2017 20:20:00 13.9 C 7.79 g/m*3 13.9 C 4.8 km/h
Sensor: Nr:Datum:Temp:Abs-Feuchte:Windchill:Wind:
Aussen-T/F 301 08-04-2017 20:25:00 13.7 C 7.7 g/m*3 13.7 C 4.8 km/h
302 08-04-2017 20:30:00 13.6 C 7.77 g/m*3 13.6 C 4.8 km/h
303 08-04-2017 20:35:00 13.3 C 7.74 g/m*3 13.3 C 4.8 km/h
304 08-04-2017 20:40:00 13.1 C 7.65 g/m*3 13.1 C 4.8 km/h
305 08-04-2017 20:45:00 12.9 C 7.66 g/m*3 12.9 C 4.8 km/h
306 08-04-2017 20:50:00 12.8 C 7.62 g/m*3 12.8 C 4.8 km/h
307 08-04-2017 20:55:00 12.7 C 7.68 g/m*3 12.7 C 3.2 km/h
308 08-04-2017 21:00:00 12.6 C 7.63 g/m*3 12.6 C 3.2 km/h
309 08-04-2017 21:05:00 12.6 C 7.63 g/m*3 12.6 C 4.8 km/h
310 08-04-2017 21:10:00 12.5 C 7.7 g/m*3 12.5 C 1.6 km/h
311 08-04-2017 21:15:00 12.5 C 7.7 g/m*3 12.5 C 3.2 km/h
312 08-04-2017 21:20:00 12.5 C 7.7 g/m*3 12.5 C 3.2 km/h
313 08-04-2017 21:25:00 12.4 C 7.76 g/m*3 12.4 C 4.8 km/h
314 08-04-2017 21:30:00 12.3 C 7.71 g/m*3 12.3 C 3.2 km/h
315 08-04-2017 21:35:00 12.3 C 7.71 g/m*3 12.3 C 3.2 km/h
316 08-04-2017 21:40:00 12.2 C 7.77 g/m*3 12.2 C 4.8 km/h
317 08-04-2017 21:45:00 12.1 C 7.61 g/m*3 12.1 C 4.8 km/h
318 08-04-2017 21:50:00 11.9 C 7.63 g/m*3 11.9 C 1.6 km/h
319 08-04-2017 21:55:00 11.8 C 7.58 g/m*3 11.8 C 4.8 km/h
320 08-04-2017 22:00:00 11.8 C 7.58 g/m*3 11.8 C 4.8 km/h
321 08-04-2017 22:05:00 11.7 C 7.64 g/m*3 11.7 C 4.8 km/h
322 08-04-2017 22:10:00 11.7 C 7.64 g/m*3 11.7 C 4.8 km/h
323 08-04-2017 22:15:00 11.6 C 7.59 g/m*3 11.6 C 3.2 km/h
324 08-04-2017 22:20:00 11.4 C 7.49 g/m*3 11.4 C 4.8 km/h
325 08-04-2017 22:25:00 11.3 C 7.55 g/m*3 11.3 C 3.2 km/h
Sensor: Nr:Datum:Temp:Abs-Feuchte:Windchill:Wind:
Aussen-T/F 326 08-04-2017 22:30:00 11.2 C 7.6 g/m*3 11.2 C 0 km/h
327 08-04-2017 22:35:00 10.9 C 7.56 g/m*3 10.9 C 0 km/h
328 08-04-2017 22:40:00 10.7 C 7.56 g/m*3 10.7 C 0 km/h
329 08-04-2017 22:45:00 10.5 C 7.47 g/m*3 10.5 C 0 km/h
330 08-04-2017 22:50:00 10.2 C 7.42 g/m*3 10.2 C 0 km/h
331 08-04-2017 22:55:00 10 C 7.33 g/m*3 10 C 0 km/h
332 08-04-2017 23:00:00 9.8 C 7.33 g/m*3 9.8 C 1.6 km/h
333 08-04-2017 23:05:00 9.6 C 7.33 g/m*3 9.6 C 1.6 km/h
334 08-04-2017 23:10:00 9.5 C 7.37 g/m*3 9.5 C 0 km/h
335 08-04-2017 23:15:00 9.4 C 7.33 g/m*3 9.4 C 0 km/h
336 08-04-2017 23:20:00 9.2 C 7.23 g/m*3 9.2 C 0 km/h
337 08-04-2017 23:25:00 9.1 C 7.28 g/m*3 9.1 C 0 km/h
338 08-04-2017 23:30:00 8.9 C 7.27 g/m*3 8.9 C 0 km/h
339 08-04-2017 23:35:00 8.8 C 7.22 g/m*3 8.8 C 0 km/h
340 08-04-2017 23:40:00 8.6 C 7.13 g/m*3 8.6 C 0 km/h
341 08-04-2017 23:45:00 8.4 C 7.13 g/m*3 8.4 C 0 km/h
342 08-04-2017 23:50:00 8.3 C 7.08 g/m*3 8.3 C 0 km/h
343 08-04-2017 23:55:00 8.2 C 7.12 g/m*3 8.2 C 0 km/h

Legende:
   Min
   Max


Maximal/Minimal-Werte vom 07.04.2017 - 08.04.2017

Sensor Min Max Avg
Temp
(Aussen-T/F)
3.4 °C
07-04-2017  06:45:00
19.6 °C
08-04-2017  18:00:00
13.01 °C
Abs-Feuchte
(Aussen-T/F)
5.62 g/m*3
07-04-2017  06:45:00
8.29 g/m*3
08-04-2017  12:05:00
7.45 g/m*3
Windchill
(Aussen-T/F)
1.23 C
07-04-2017  07:05:00
19.6 C
08-04-2017  18:00:00
12.95 C

Die Daten stammen von einer Davis Vantage Pro 2 Wetter-Station und werden unter Linux mit der Software wview2wettercgi und aufbereitet. Alle Angaben erfolgen ohne Gewähr für ihre Vollständigkeit oder Richtigkeit.
Kontakt: Rainer Krienke krienke@uni-koblenz.de . Meine Webseiten an der Uni Koblenz oder privat.
Version: $Revision: 0.78 $